Time;durP1;ratioP1;P1;durP2;ratioP2;P2;SDS_P1;SDS_P2;PMS_P1;PMS_P2;Temp;Humidity;BMP_temperature;BMP_pressure;BME280_temperature;BME280_humidity;BME280_pressure;Samples;Min_cycle;Max_cycle;Signal;HPM_P1;HPM_P2
2023/06/09 00:00:55;;;;;;;11.75;6.10;;;14.30;99.90;;;;;;5043842;28;20128;-76
2023/06/09 00:03:21;;;;;;;11.43;5.72;;;14.20;99.90;;;;;;5042197;28;20476;-76
2023/06/09 00:05:48;;;;;;;15.75;6.25;;;14.20;99.90;;;;;;5051507;28;20052;-75
2023/06/09 00:08:14;;;;;;;12.20;6.07;;;14.20;99.90;;;;;;5046818;28;20044;-75
2023/06/09 00:10:39;;;;;;;14.52;6.45;;;14.10;99.90;;;;;;5044159;28;20123;-75
2023/06/09 00:13:05;;;;;;;12.73;6.35;;;14.10;99.90;;;;;;5042470;28;20096;-75
2023/06/09 00:15:31;;;;;;;14.57;6.07;;;14.10;99.90;;;;;;5031543;28;20045;-75
2023/06/09 00:17:56;;;;;;;11.88;6.60;;;14.10;99.90;;;;;;5041651;28;20120;-75
2023/06/09 00:20:23;;;;;;;11.98;6.47;;;13.90;99.90;;;;;;5039454;28;20049;-74
2023/06/09 00:22:49;;;;;;;16.02;6.47;;;14.00;99.90;;;;;;5033833;28;20036;-74
2023/06/09 00:25:19;;;;;;;13.00;5.90;;;14.00;99.90;;;;;;5025146;28;20046;-74
2023/06/09 00:27:45;;;;;;;11.68;5.85;;;14.00;99.90;;;;;;5037471;28;20126;-73
2023/06/09 00:30:14;;;;;;;16.35;6.88;;;14.00;99.90;;;;;;5026359;28;20088;-73
2023/06/09 00:32:42;;;;;;;13.25;5.82;;;14.00;99.90;;;;;;5032145;28;20454;-73
2023/06/09 00:35:08;;;;;;;11.65;6.10;;;;;;;;;;5037349;28;20544;-74
2023/06/09 00:37:35;;;;;;;13.38;6.22;;;;;;;;;;5043132;28;20117;-73
2023/06/09 00:40:01;;;;;;;13.93;5.97;;;;;;;;;;5040925;28;20048;-73
2023/06/09 00:42:27;;;;;;;12.77;6.10;;;;;;;;;;5034001;28;20106;-74
2023/06/09 00:44:53;;;;;;;14.35;7.15;;;;;;;;;;5040429;28;20068;-74
2023/06/09 00:47:19;;;;;;;13.13;6.53;;;;;;;;;;5038459;28;20444;-74
2023/06/09 00:49:45;;;;;;;16.40;6.53;;;;;;;;;;5040664;28;20053;-73
2023/06/09 00:52:12;;;;;;;16.80;6.93;;;;;;;;;;5040355;28;20091;-73
2023/06/09 00:54:38;;;;;;;16.20;6.85;;;;;;;;;;5039715;28;20048;-73
2023/06/09 00:57:05;;;;;;;15.85;6.80;;;;;;;;;;5036749;28;20167;-73
2023/06/09 00:59:33;;;;;;;13.65;6.72;;;;;;;;;;5041785;28;20045;-74
2023/06/09 01:01:59;;;;;;;13.77;7.05;;;;;;;;;;5033363;28;20135;-73
2023/06/09 01:04:25;;;;;;;15.50;6.68;;;;;;;;;;5050652;28;20079;-73
2023/06/09 01:07:20;;;;;;;14.77;6.40;;;;;;;;;;5038279;28;20500;-73
2023/06/09 01:09:50;;;;;;;15.35;7.15;;;;;;;;;;5025653;28;20505;-73
2023/06/09 01:12:35;;;;;;;17.02;7.00;;;;;;;;;;5048359;28;20044;-73
2023/06/09 01:15:09;;;;;;;14.10;6.60;;;;;;;;;;5045120;28;20141;-74
2023/06/09 01:17:36;;;;;;;17.02;6.82;;;;;;;;;;5035145;28;20512;-74
2023/06/09 01:20:03;;;;;;;11.45;6.63;;;;;;;;;;5049451;28;20040;-73
2023/06/09 01:22:42;;;;;;;18.13;6.85;;;;;;;;;;5045156;28;20085;-73
2023/06/09 01:25:17;;;;;;;13.40;7.32;;;;;;;;;;5047463;28;20049;-74
2023/06/09 01:27:44;;;;;;;14.95;7.15;;;;;;;;;;5044567;28;20384;-73
2023/06/09 01:30:11;;;;;;;13.35;7.22;;;;;;;;;;5034364;28;20033;-74
2023/06/09 01:32:38;;;;;;;13.95;7.30;;;;;;;;;;5039146;28;20089;-74
2023/06/09 01:35:05;;;;;;;15.10;7.30;;;;;;;;;;5045067;28;20576;-74
2023/06/09 01:37:31;;;;;;;15.07;7.22;;;;;;;;;;5038652;28;20473;-74
2023/06/09 01:39:57;;;;;;;17.52;7.32;;;;;;;;;;5044977;28;20045;-74
2023/06/09 01:42:23;;;;;;;12.82;6.97;;;;;;;;;;5031451;28;20039;-74
2023/06/09 01:44:49;;;;;;;14.70;8.18;;;13.80;99.90;;;;;;5042203;28;20416;-75
2023/06/09 01:47:18;;;;;;;16.20;8.18;;;13.40;99.90;;;;;;5034410;28;20045;-74
2023/06/09 01:50:02;;;;;;;15.55;7.72;;;;;;;;;;5039149;28;20052;-74
2023/06/09 01:52:42;;;;;;;19.33;8.07;;;;;;;;;;5039292;28;20486;-74
2023/06/09 01:55:11;;;;;;;19.85;8.95;;;;;;;;;;5038590;28;20037;-74
2023/06/09 01:57:57;;;;;;;17.73;8.95;;;;;;;;;;5038122;28;20103;-74
2023/06/09 02:00:26;;;;;;;18.67;8.23;;;;;;;;;;5049159;28;20407;-75
2023/06/09 02:02:53;;;;;;;20.08;8.68;;;;;;;;;;5050114;28;20048;-74
2023/06/09 02:05:20;;;;;;;16.25;8.43;;;;;;;;;;5055547;28;20103;-74
2023/06/09 02:07:46;;;;;;;14.57;8.57;;;;;;;;;;5031516;28;20129;-74
2023/06/09 02:10:12;;;;;;;16.30;8.95;;;;;;;;;;5032714;28;20077;-74
2023/06/09 02:12:38;;;;;;;20.05;9.18;;;;;;;;;;5029891;28;20049;-74
2023/06/09 02:15:05;;;;;;;14.38;8.20;;;;;;;;;;5032071;28;20064;-74
2023/06/09 02:17:34;;;;;;;17.60;8.15;;;;;;;;;;5034775;28;20199;-74
2023/06/09 02:20:00;;;;;;;21.30;8.52;;;;;;;;;;5037620;28;20051;-74
2023/06/09 02:22:26;;;;;;;13.38;7.30;;;;;;;;;;5033103;28;20038;-74
2023/06/09 02:24:52;;;;;;;16.17;7.38;;;;;;;;;;5034223;28;20046;-74
2023/06/09 02:27:18;;;;;;;14.93;7.15;;;;;;;;;;5041897;28;20044;-75
2023/06/09 02:29:44;;;;;;;14.50;7.80;;;;;;;;;;5028764;28;20042;-74
2023/06/09 02:32:10;;;;;;;17.60;7.60;;;;;;;;;;5036089;28;20658;-74
2023/06/09 02:34:37;;;;;;;15.82;8.18;;;;;;;;;;5037063;28;20053;-74
2023/06/09 02:37:07;;;;;;;17.05;7.65;;;;;;;;;;5034602;28;20136;-74
2023/06/09 02:39:34;;;;;;;15.32;7.93;;;;;;;;;;5042612;28;20049;-73
2023/06/09 02:42:00;;;;;;;19.25;8.10;;;;;;;;;;5037121;28;20048;-74
2023/06/09 02:44:26;;;;;;;18.80;7.63;;;;;;;;;;5032481;28;20072;-74
2023/06/09 02:46:52;;;;;;;15.32;7.45;;;;;;;;;;5030658;28;20049;-75
2023/06/09 02:49:18;;;;;;;16.60;6.93;;;;;;;;;;5030016;28;20481;-75
2023/06/09 02:51:44;;;;;;;12.50;6.88;;;;;;;;;;5033458;28;20040;-74
2023/06/09 02:54:10;;;;;;;13.27;7.03;;;;;;;;;;5031410;28;20453;-74
2023/06/09 02:56:36;;;;;;;17.05;7.20;;;;;;;;;;5034615;28;20083;-74
2023/06/09 02:59:02;;;;;;;18.85;7.45;;;;;;;;;;5033018;28;20048;-74
2023/06/09 03:01:35;;;;;;;15.90;7.30;;;;;;;;;;5034608;28;20056;-74
2023/06/09 03:04:07;;;;;;;13.05;7.22;;;;;;;;;;5036228;28;20365;-73
2023/06/09 03:06:36;;;;;;;17.33;7.73;;;;;;;;;;5032137;28;20049;-73
2023/06/09 03:09:03;;;;;;;12.32;6.88;;;;;;;;;;5050015;28;20138;-74
2023/06/09 03:11:30;;;;;;;17.15;7.05;;;;;;;;;;5032722;28;20041;-74
2023/06/09 03:13:56;;;;;;;15.55;7.00;;;;;;;;;;5031774;28;20045;-73
2023/06/09 03:16:22;;;;;;;13.60;7.50;;;;;;;;;;5043507;28;20057;-74
2023/06/09 03:18:48;;;;;;;15.50;6.70;;;;;;;;;;5041423;28;20037;-74
2023/06/09 03:21:14;;;;;;;17.00;7.28;;;;;;;;;;5052470;28;20044;-74
2023/06/09 03:23:41;;;;;;;15.60;7.35;;;;;;;;;;5045364;28;20405;-74
2023/06/09 03:26:07;;;;;;;19.58;7.32;;;;;;;;;;5048589;28;20049;-75
2023/06/09 03:28:33;;;;;;;17.90;7.15;;;;;;;;;;5054086;28;20131;-74
2023/06/09 03:30:59;;;;;;;18.30;7.72;;;;;;;;;;5055717;28;20044;-73
2023/06/09 03:33:25;;;;;;;15.70;7.32;;;;;;;;;;5037372;28;20243;-74
2023/06/09 03:35:52;;;;;;;17.02;6.97;;;;;;;;;;5032101;28;20393;-74
2023/06/09 03:38:18;;;;;;;14.93;7.60;;;;;;;;;;5030768;28;20048;-75
2023/06/09 03:40:44;;;;;;;16.30;7.13;;;;;;;;;;5039897;28;20773;-74
2023/06/09 03:43:11;;;;;;;14.23;7.30;;;;;;;;;;5039558;28;20431;-74
2023/06/09 03:45:37;;;;;;;16.52;7.70;;;;;;;;;;5038132;28;20068;-74
2023/06/09 03:48:05;;;;;;;17.55;7.80;;;;;;;;;;5036229;28;20041;-74
2023/06/09 03:50:31;;;;;;;14.05;7.68;;;;;;;;;;5038180;28;20059;-74
2023/06/09 03:52:57;;;;;;;15.02;7.78;;;;;;;;;;5043100;28;20457;-74
2023/06/09 03:55:24;;;;;;;17.75;8.15;;;;;;;;;;5044142;28;20500;-74
2023/06/09 03:57:50;;;;;;;14.50;7.88;;;;;;;;;;5037330;28;20428;-74
2023/06/09 04:00:17;;;;;;;18.40;8.50;;;;;;;;;;5040864;28;20041;-74
2023/06/09 04:02:43;;;;;;;15.65;7.75;;;;;;;;;;5029686;28;20114;-74
2023/06/09 04:05:10;;;;;;;22.05;8.02;;;;;;;;;;5039351;28;20120;-74
2023/06/09 04:07:36;;;;;;;18.80;8.88;;;;;;;;;;5042462;28;20033;-73
2023/06/09 04:10:05;;;;;;;14.88;8.07;;;;;;;;;;5043708;28;20106;-74
2023/06/09 04:12:31;;;;;;;18.15;8.45;;;;;;;;;;5042022;28;20120;-74
2023/06/09 04:14:59;;;;;;;17.08;8.40;;;;;;;;;;5041697;28;20048;-74
2023/06/09 04:17:25;;;;;;;16.85;8.57;;;;;;;;;;5039719;28;20053;-74
2023/06/09 04:19:51;;;;;;;18.73;7.88;;;13.50;99.90;;;;;;5038696;28;20059;-74
2023/06/09 04:22:17;;;;;;;14.50;8.27;;;13.30;99.90;;;;;;5051602;28;20061;-75
2023/06/09 04:24:43;;;;;;;20.38;8.60;;;13.30;99.90;;;;;;5042790;28;20052;-74
2023/06/09 04:27:09;;;;;;;16.35;7.30;;;13.40;99.90;;;;;;5033897;28;20057;-73
2023/06/09 04:29:35;;;;;;;13.63;7.80;;;13.30;99.90;;;;;;5048656;28;20072;-74
2023/06/09 04:32:05;;;;;;;17.42;8.00;;;13.40;99.90;;;;;;5037374;28;20084;-73
2023/06/09 04:34:38;;;;;;;16.33;8.23;;;13.50;99.90;;;;;;5040519;28;20053;-74
2023/06/09 04:37:07;;;;;;;17.60;7.13;;;13.40;99.90;;;;;;5048658;28;20087;-73
2023/06/09 04:39:33;;;;;;;19.25;8.88;;;13.60;99.90;;;;;;5037163;28;20049;-73
2023/06/09 04:42:03;;;;;;;15.75;7.95;;;13.50;99.90;;;;;;5036737;28;20045;-74
2023/06/09 04:44:29;;;;;;;14.68;7.93;;;13.60;99.90;;;;;;5038062;28;20543;-73
2023/06/09 04:46:55;;;;;;;14.05;7.82;;;13.60;99.90;;;;;;5038013;28;20083;-74
2023/06/09 04:49:23;;;;;;;14.63;8.20;;;13.60;99.90;;;;;;5039964;28;20057;-74
2023/06/09 04:51:49;;;;;;;15.80;8.13;;;13.70;99.90;;;;;;5055056;28;20405;-74
2023/06/09 04:54:20;;;;;;;16.15;8.70;;;13.70;99.90;;;;;;5037714;28;20048;-74
2023/06/09 04:56:52;;;;;;;17.05;8.20;;;13.80;99.90;;;;;;5038893;28;20032;-74
2023/06/09 04:59:18;;;;;;;15.60;7.90;;;13.80;99.90;;;;;;5032343;28;20040;-74
2023/06/09 05:01:46;;;;;;;18.13;8.35;;;13.90;99.90;;;;;;5037863;28;20092;-73
2023/06/09 05:04:13;;;;;;;15.82;8.10;;;13.80;99.90;;;;;;5047001;28;20512;-74
2023/06/09 05:06:39;;;;;;;17.92;8.77;;;13.80;99.90;;;;;;5043637;28;20037;-73
2023/06/09 05:09:06;;;;;;;17.33;8.73;;;13.80;99.90;;;;;;5053414;28;20374;-73
2023/06/09 05:11:32;;;;;;;16.58;8.77;;;13.80;99.90;;;;;;5050759;28;20044;-74
2023/06/09 05:13:57;;;;;;;15.82;8.75;;;13.80;99.90;;;;;;5048675;28;20048;-73
2023/06/09 05:16:25;;;;;;;22.98;11.63;;;13.90;99.90;;;;;;5047417;28;20048;-74
2023/06/09 05:18:52;;;;;;;21.45;8.68;;;13.90;99.90;;;;;;5048548;28;20119;-74
2023/06/09 05:21:18;;;;;;;17.92;8.63;;;14.00;99.90;;;;;;5049252;28;20091;-74
2023/06/09 05:23:43;;;;;;;17.83;9.27;;;14.20;99.90;;;;;;5048195;28;20081;-73
2023/06/09 05:26:09;;;;;;;18.48;9.30;;;14.10;99.90;;;;;;5052177;28;20041;-73
2023/06/09 05:28:35;;;;;;;19.25;8.20;;;14.10;99.90;;;;;;5046520;28;20045;-74
2023/06/09 05:31:01;;;;;;;18.60;9.23;;;14.20;99.90;;;;;;5039241;28;20098;-73
2023/06/09 05:33:27;;;;;;;18.52;8.48;;;;;;;;;;5039776;28;20508;-74
2023/06/09 05:35:53;;;;;;;21.20;8.30;;;14.40;99.90;;;;;;5036891;28;20049;-73
2023/06/09 05:38:23;;;;;;;15.02;8.18;;;14.20;99.90;;;;;;5037641;28;20090;-74
2023/06/09 05:40:49;;;;;;;15.13;8.40;;;14.40;99.90;;;;;;5039553;28;20072;-73
2023/06/09 05:43:14;;;;;;;18.45;8.40;;;14.40;99.90;;;;;;5039864;28;21876;-74
2023/06/09 05:45:40;;;;;;;18.40;8.35;;;14.40;99.90;;;;;;5049720;28;20112;-74
2023/06/09 05:48:06;;;;;;;17.75;8.15;;;14.30;99.90;;;;;;5052040;28;20048;-74
2023/06/09 05:50:31;;;;;;;20.45;8.48;;;14.30;99.90;;;;;;5046191;28;20037;-74
2023/06/09 05:52:57;;;;;;;14.85;7.90;;;14.60;99.90;;;;;;5043147;28;20041;-73
2023/06/09 05:55:23;;;;;;;19.52;8.20;;;14.60;99.90;;;;;;5039487;28;20045;-74
2023/06/09 05:57:49;;;;;;;15.93;7.50;;;;;;;;;;5053612;28;20068;-76
2023/06/09 06:00:15;;;;;;;17.92;8.52;;;14.70;99.90;;;;;;5042920;28;20461;-75
2023/06/09 06:02:42;;;;;;;14.40;8.23;;;14.70;99.90;;;;;;5039049;28;20037;-73
2023/06/09 06:05:09;;;;;;;16.50;7.57;;;14.70;99.90;;;;;;5041367;28;20041;-73
2023/06/09 06:07:36;;;;;;;16.45;7.90;;;14.80;99.90;;;;;;5034195;28;20033;-73
2023/06/09 06:10:03;;;;;;;16.10;7.75;;;14.80;99.90;;;;;;5040861;28;20049;-74
2023/06/09 06:12:30;;;;;;;14.18;7.55;;;14.90;99.90;;;;;;5044062;28;20111;-73
2023/06/09 06:14:55;;;;;;;20.85;7.60;;;15.00;99.90;;;;;;5036749;28;20755;-74
2023/06/09 06:17:21;;;;;;;14.80;7.65;;;15.00;99.90;;;;;;5048747;28;20045;-74
2023/06/09 06:19:47;;;;;;;19.00;7.35;;;15.00;99.90;;;;;;5035017;28;20087;-75
2023/06/09 06:22:12;;;;;;;16.60;7.43;;;15.50;99.90;;;;;;5035855;28;20832;-74
2023/06/09 06:24:38;;;;;;;18.05;7.60;;;15.20;99.90;;;;;;5038829;28;20049;-73
2023/06/09 06:27:04;;;;;;;13.18;8.50;;;15.60;99.90;;;;;;5039820;28;20108;-74
2023/06/09 06:29:30;;;;;;;16.95;8.60;;;15.10;99.90;;;;;;5039569;28;20466;-75
2023/06/09 06:31:56;;;;;;;17.30;8.27;;;15.40;99.90;;;;;;5034168;28;20083;-74
2023/06/09 06:34:21;;;;;;;18.67;7.82;;;15.40;99.90;;;;;;5038801;28;20085;-75
2023/06/09 06:36:47;;;;;;;14.63;7.47;;;15.30;99.90;;;;;;5036744;28;20581;-74
2023/06/09 06:39:13;;;;;;;14.40;8.63;;;15.40;99.90;;;;;;5039309;28;20063;-74
2023/06/09 06:41:38;;;;;;;15.48;8.25;;;15.50;99.90;;;;;;5035514;28;20071;-74
2023/06/09 06:44:04;;;;;;;19.98;8.65;;;15.80;99.90;;;;;;5040949;28;20069;-74
2023/06/09 06:46:31;;;;;;;14.85;8.57;;;15.90;99.90;;;;;;5034969;28;20041;-75
2023/06/09 06:48:57;;;;;;;16.38;7.82;;;;;;;;;;5032321;28;20045;-73
2023/06/09 06:51:23;;;;;;;17.15;7.82;;;15.80;99.90;;;;;;5034936;28;20476;-74
2023/06/09 06:53:48;;;;;;;15.68;8.75;;;15.80;99.90;;;;;;5036903;28;20120;-75
2023/06/09 06:56:14;;;;;;;23.77;9.13;;;15.80;99.90;;;;;;5035465;28;20053;-74
2023/06/09 06:58:40;;;;;;;15.77;8.82;;;15.90;99.90;;;;;;5037240;28;20047;-74
2023/06/09 07:01:06;;;;;;;17.38;8.50;;;15.90;99.90;;;;;;5033935;28;20049;-75
2023/06/09 07:03:35;;;;;;;18.92;9.00;;;15.80;99.90;;;;;;5037256;28;20048;-75
2023/06/09 07:06:01;;;;;;;22.15;8.77;;;15.90;99.90;;;;;;5037205;28;20041;-74
2023/06/09 07:08:27;;;;;;;16.23;7.65;;;16.00;99.90;;;;;;5032781;28;20057;-75
2023/06/09 07:10:53;;;;;;;17.98;8.10;;;16.00;99.90;;;;;;5037707;28;20095;-74
2023/06/09 07:13:18;;;;;;;16.38;8.07;;;16.10;99.90;;;;;;5048149;28;20049;-75
2023/06/09 07:15:44;;;;;;;14.70;7.97;;;16.10;99.90;;;;;;5034596;28;20041;-76
2023/06/09 07:18:11;;;;;;;18.90;9.38;;;16.20;99.90;;;;;;5038349;28;20116;-74
2023/06/09 07:20:36;;;;;;;19.23;8.27;;;16.20;99.90;;;;;;5034185;28;20244;-75
2023/06/09 07:23:02;;;;;;;15.18;8.18;;;16.30;99.90;;;;;;5032596;28;20041;-75
2023/06/09 07:25:28;;;;;;;14.55;7.65;;;16.40;99.90;;;;;;5041179;28;20459;-75
2023/06/09 07:27:53;;;;;;;19.15;8.85;;;16.40;99.90;;;;;;5033798;28;20068;-75
2023/06/09 07:30:19;;;;;;;17.30;8.02;;;;;;;;;;5030176;28;20085;-76
2023/06/09 07:32:45;;;;;;;15.05;7.78;;;16.60;99.90;;;;;;5038354;28;20048;-74
2023/06/09 07:35:12;;;;;;;15.45;7.45;;;16.60;99.90;;;;;;5037639;28;20422;-74
2023/06/09 07:37:42;;;;;;;16.20;8.38;;;16.70;99.90;;;;;;5033341;28;20037;-75
2023/06/09 07:40:11;;;;;;;13.70;8.43;;;16.70;99.90;;;;;;5035269;28;20547;-75
2023/06/09 07:42:37;;;;;;;18.30;7.93;;;16.80;99.90;;;;;;5036300;28;20087;-75
2023/06/09 07:45:03;;;;;;;20.05;8.65;;;16.90;99.90;;;;;;5034506;28;20045;-75
2023/06/09 07:47:29;;;;;;;14.50;8.43;;;17.00;99.90;;;;;;5040987;28;20033;-75
2023/06/09 07:49:54;;;;;;;15.77;8.30;;;17.10;99.90;;;;;;5033698;28;20041;-75
2023/06/09 07:52:20;;;;;;;18.55;8.40;;;17.10;99.90;;;;;;5034575;28;20071;-75
2023/06/09 07:54:46;;;;;;;17.33;9.48;;;;;;;;;;5033342;28;20080;-75
2023/06/09 07:57:12;;;;;;;17.15;8.90;;;17.10;99.90;;;;;;5030213;28;20107;-75
2023/06/09 07:59:38;;;;;;;15.35;8.75;;;17.20;99.90;;;;;;5040007;28;20037;-75
2023/06/09 08:02:03;;;;;;;16.33;8.68;;;17.20;99.90;;;;;;5035082;28;20034;-75
2023/06/09 08:04:30;;;;;;;17.65;8.68;;;17.40;99.90;;;;;;5032578;28;20061;-76
2023/06/09 08:06:59;;;;;;;13.52;7.97;;;;;;;;;;5037157;28;20047;-76
2023/06/09 08:09:28;;;;;;;19.63;8.63;;;17.30;99.90;;;;;;5029966;28;20080;-75
2023/06/09 08:11:54;;;;;;;17.45;9.00;;;17.60;99.90;;;;;;5031696;28;20083;-74
2023/06/09 08:14:19;;;;;;;17.10;8.10;;;17.60;99.90;;;;;;5033768;28;20065;-75
2023/06/09 08:16:46;;;;;;;13.68;7.72;;;;;;;;;;5036474;28;20064;-74
2023/06/09 08:19:12;;;;;;;17.65;8.88;;;;;;;;;;5039166;28;20390;-75
2023/06/09 08:21:43;;;;;;;19.45;8.38;;;;;;;;;;5037692;28;20048;-75
2023/06/09 08:24:13;;;;;;;18.83;8.57;;;;;;;;;;5037152;28;20053;-74
2023/06/09 08:26:39;;;;;;;17.63;8.80;;;;;;;;;;5045039;28;20127;-75
2023/06/09 08:29:06;;;;;;;13.55;8.93;;;;;;;;;;5037085;28;20045;-76
2023/06/09 08:31:32;;;;;;;20.17;8.40;;;;;;;;;;5039341;28;20053;-74
2023/06/09 08:33:59;;;;;;;14.73;8.98;;;;;;;;;;5031625;28;20069;-75
2023/06/09 08:36:25;;;;;;;16.90;8.48;;;;;;;;;;5036454;28;20510;-74
2023/06/09 08:38:51;;;;;;;13.93;7.70;;;;;;;;;;5037804;28;20052;-75
2023/06/09 08:41:19;;;;;;;15.02;7.80;;;;;;;;;;5038113;28;20055;-76
2023/06/09 08:43:46;;;;;;;22.00;9.43;;;;;;;;;;5036120;28;20041;-74
2023/06/09 08:46:12;;;;;;;14.07;7.80;;;;;;;;;;5037747;28;20052;-74
2023/06/09 08:48:42;;;;;;;16.50;8.40;;;;;;;;;;5040468;28;20289;-74
2023/06/09 08:51:11;;;;;;;13.68;7.45;;;;;;;;;;5042859;28;20047;-74
2023/06/09 08:53:38;;;;;;;16.33;8.00;;;;;;;;;;5039498;28;20056;-74
2023/06/09 08:56:04;;;;;;;15.25;7.68;;;;;;;;;;5038759;28;20493;-74
2023/06/09 08:58:30;;;;;;;17.65;7.60;;;;;;;;;;5033897;28;20501;-74
2023/06/09 09:00:56;;;;;;;16.65;8.40;;;;;;;;;;5040765;28;20163;-74
2023/06/09 09:03:23;;;;;;;19.30;7.90;;;;;;;;;;5034085;28;20049;-74
2023/06/09 09:05:49;;;;;;;13.90;7.07;;;;;;;;;;5042268;28;20137;-73
2023/06/09 09:08:15;;;;;;;18.70;8.10;;;;;;;;;;5040118;28;20049;-75
2023/06/09 09:10:47;;;;;;;15.05;7.57;;;;;;;;;;5034543;28;20076;-74
2023/06/09 09:13:13;;;;;;;13.23;7.75;;;;;;;;;;5038445;28;20045;-75
2023/06/09 09:15:48;;;;;;;16.55;7.65;;;;;;;;;;5036535;28;20048;-74
2023/06/09 09:18:16;;;;;;;16.40;8.85;;;;;;;;;;5031468;28;20048;-74
2023/06/09 09:20:42;;;;;;;12.48;7.55;;;;;;;;;;5034685;28;20049;-75
2023/06/09 09:23:08;;;;;;;14.40;7.78;;;;;;;;;;5034972;28;20048;-74
2023/06/09 09:25:34;;;;;;;15.05;7.68;;;;;;;;;;5038329;28;20045;-74
2023/06/09 09:28:01;;;;;;;13.10;7.55;;;;;;;;;;5043349;28;20096;-74
2023/06/09 09:30:42;;;;;;;14.77;7.95;;;;;;;;;;5038414;28;20056;-74
2023/06/09 09:33:09;;;;;;;13.60;6.82;;;;;;;;;;5040743;28;20052;-74
2023/06/09 09:35:44;;;;;;;12.27;7.45;;;;;;;;;;5035752;28;20048;-74
2023/06/09 09:38:17;;;;;;;16.55;8.35;;;;;;;;;;5040122;28;20059;-74
2023/06/09 09:40:44;;;;;;;14.45;7.85;;;;;;;;;;5042610;28;20076;-74
2023/06/09 09:43:11;;;;;;;12.77;6.88;;;;;;;;;;5060373;28;20400;-74
2023/06/09 09:45:38;;;;;;;15.52;7.18;;;;;;;;;;5041611;28;20412;-74
2023/06/09 09:48:11;;;;;;;14.90;7.70;;;;;;;;;;5040572;28;20037;-74
2023/06/09 09:50:37;;;;;;;13.02;7.07;;;;;;;;;;5040604;28;20104;-74
2023/06/09 09:53:04;;;;;;;20.60;7.60;;;;;;;;;;5041972;28;20094;-74
2023/06/09 09:55:31;;;;;;;20.25;8.18;;;;;;;;;;5040113;28;20049;-74
2023/06/09 09:57:59;;;;;;;16.00;7.70;;;;;;;;;;5045497;28;20037;-74
2023/06/09 10:00:25;;;;;;;16.23;7.80;;;;;;;;;;5035804;28;20053;-73
2023/06/09 10:02:53;;;;;;;11.50;7.68;;;;;;;;;;5036744;28;20497;-74
2023/06/09 10:05:21;;;;;;;13.63;7.55;;;;;;;;;;5036139;28;20042;-74
2023/06/09 10:07:51;;;;;;;12.68;7.35;;;;;;;;;;5034149;28;20053;-73
2023/06/09 10:10:18;;;;;;;14.02;7.38;;;;;;;;;;5043607;28;20049;-74
2023/06/09 10:12:45;;;;;;;17.60;8.07;;;;;;;;;;5036903;28;20040;-74
2023/06/09 10:15:12;;;;;;;19.10;7.90;;;;;;;;;;5039509;28;20511;-75
2023/06/09 10:17:38;;;;;;;16.25;6.95;;;;;;;;;;5035855;28;20049;-74
2023/06/09 10:20:08;;;;;;;12.52;7.43;;;;;;;;;;5045755;28;20087;-73
2023/06/09 10:22:34;;;;;;;13.48;7.40;;;;;;;;;;5042216;28;20802;-74
2023/06/09 10:25:01;;;;;;;19.17;8.13;;;;;;;;;;5040956;28;20084;-73
2023/06/09 10:27:27;;;;;;;12.07;6.85;;;;;;;;;;5039549;28;20053;-73
2023/06/09 10:29:53;;;;;;;13.10;7.38;;;;;;;;;;5040458;28;20037;-73
2023/06/09 10:32:22;;;;;;;14.82;6.90;;;;;;;;;;5036235;28;20106;-74
2023/06/09 10:34:49;;;;;;;12.68;7.53;;;;;;;;;;5036727;28;20524;-74
2023/06/09 10:37:26;;;;;;;14.50;7.32;;;;;;;;;;5035150;28;20037;-73
2023/06/09 10:39:56;;;;;;;20.40;7.88;;;;;;;;;;5040372;28;20044;-74
2023/06/09 10:42:31;;;;;;;16.17;7.63;;;;;;;;;;5036158;28;20045;-73
2023/06/09 10:45:09;;;;;;;9.88;7.07;;;;;;;;;;5045297;28;20048;-74
2023/06/09 10:47:45;;;;;;;12.85;7.30;;;;;;;;;;5039207;28;20393;-73
2023/06/09 10:50:30;;;;;;;15.43;7.88;;;;;;;;;;5041924;28;20080;-73
2023/06/09 10:53:02;;;;;;;14.73;7.43;;;;;;;;;;5039565;28;20852;-74
2023/06/09 10:55:30;;;;;;;15.60;7.25;;;;;;;;;;5033710;28;20602;-73
2023/06/09 10:57:56;;;;;;;12.82;7.28;;;;;;;;;;5040696;28;20550;-73
2023/06/09 11:00:23;;;;;;;14.73;7.32;;;;;;;;;;5043844;28;20052;-73
2023/06/09 11:02:50;;;;;;;14.57;8.35;;;;;;;;;;5048094;28;20036;-74
2023/06/09 11:05:16;;;;;;;16.25;7.57;;;;;;;;;;5040883;28;20044;-72
2023/06/09 11:07:50;;;;;;;12.90;7.70;;;;;;;;;;5044584;28;20433;-73
2023/06/09 11:10:19;;;;;;;13.50;7.10;;;;;;;;;;5045031;28;20059;-74
2023/06/09 11:12:46;;;;;;;16.77;7.80;;;;;;;;;;5043746;28;20073;-73
2023/06/09 11:15:16;;;;;;;13.23;7.30;;;;;;;;;;5030446;28;20059;-73
2023/06/09 11:17:43;;;;;;;18.25;8.48;;;;;;;;;;5029613;28;20059;-73
2023/06/09 11:20:09;;;;;;;13.20;7.60;;;;;;;;;;5040309;28;20071;-73
2023/06/09 11:22:55;;;;;;;15.88;7.88;;;;;;;;;;5032955;28;20043;-73
2023/06/09 11:25:23;;;;;;;13.30;7.45;;;;;;;;;;5037933;28;20090;-73
2023/06/09 11:27:55;;;;;;;16.08;8.32;;;;;;;;;;5037039;28;20477;-73
2023/06/09 11:30:29;;;;;;;17.85;8.10;;;;;;;;;;5031813;28;20045;-73
2023/06/09 11:32:56;;;;;;;17.70;7.75;;;;;;;;;;5040401;28;20572;-73
2023/06/09 11:35:28;;;;;;;16.80;8.15;;;;;;;;;;5041742;28;20057;-73
2023/06/09 11:37:57;;;;;;;20.33;7.63;;;;;;;;;;5042180;28;20484;-73
2023/06/09 11:40:23;;;;;;;17.98;7.88;;;;;;;;;;5041192;28;20114;-73
2023/06/09 11:42:50;;;;;;;15.57;8.20;;;;;;;;;;5040457;28;20095;-73
2023/06/09 11:45:16;;;;;;;25.80;8.15;;;;;;;;;;5041179;28;20064;-73
2023/06/09 11:47:43;;;;;;;17.73;6.97;;;;;;;;;;5036234;28;20416;-73
2023/06/09 11:50:12;;;;;;;20.85;8.48;;;;;;;;;;5038644;28;20056;-72
2023/06/09 11:52:42;;;;;;;14.00;7.07;;;;;;;;;;5041698;28;20100;-73
2023/06/09 11:55:08;;;;;;;14.15;7.32;;;;;;;;;;5039496;28;20045;-73
2023/06/09 11:57:34;;;;;;;15.25;7.97;;;;;;;;;;5039705;28;20045;-73
2023/06/09 12:00:05;;;;;;;20.55;7.53;;;;;;;;;;5040877;28;20116;-73
2023/06/09 12:02:31;;;;;;;13.75;6.57;;;;;;;;;;5040375;28;20045;-73
2023/06/09 12:04:58;;;;;;;16.70;7.50;;;;;;;;;;5039387;28;20049;-72
2023/06/09 12:07:24;;;;;;;20.02;7.60;;;;;;;;;;5033900;28;20045;-72
2023/06/09 12:09:57;;;;;;;16.42;7.05;;;;;;;;;;5045386;28;20048;-73
2023/06/09 12:12:23;;;;;;;16.60;7.80;;;;;;;;;;5039412;28;20041;-73
2023/06/09 12:14:49;;;;;;;24.33;7.45;;;;;;;;;;5037668;28;20395;-72
2023/06/09 12:17:15;;;;;;;25.77;7.15;;;;;;;;;;5040223;28;20132;-72
2023/06/09 12:19:41;;;;;;;13.45;7.65;;;;;;;;;;5040790;28;20120;-73
2023/06/09 12:22:07;;;;;;;27.67;8.30;;;;;;;;;;5045403;28;20037;-73
2023/06/09 12:24:33;;;;;;;18.15;7.25;;;;;;;;;;5038448;28;21224;-73
2023/06/09 12:27:10;;;;;;;19.45;7.15;;;;;;;;;;5040114;28;20095;-73
2023/06/09 12:29:36;;;;;;;14.20;6.38;;;;;;;;;;5037651;28;20037;-73
2023/06/09 12:32:02;;;;;;;17.05;6.68;;;;;;;;;;5043062;28;20049;-73
2023/06/09 12:34:29;;;;;;;15.70;6.63;;;;;;;;;;5036875;28;20049;-73
2023/06/09 12:36:58;;;;;;;15.90;6.20;;;;;;;;;;5037756;28;20404;-73
2023/06/09 12:39:25;;;;;;;14.50;6.78;;;;;;;;;;5046507;28;20110;-73
2023/06/09 12:41:51;;;;;;;18.30;6.60;;;;;;;;;;5042805;28;20041;-73
2023/06/09 12:44:24;;;;;;;13.13;6.40;;;;;;;;;;5033720;28;20146;-74
2023/06/09 12:46:54;;;;;;;;;;;;;;;;;;5050742;28;20115;-73
2023/06/09 12:49:30;;;;;;;36.25;8.40;;;;;;;;;;5048179;28;19925;-74
2023/06/09 12:51:57;;;;;;;17.17;7.57;;;;;;;;;;5046044;28;20049;-73
2023/06/09 12:54:23;;;;;;;20.80;6.90;;;;;;;;;;5043746;28;20136;-73
2023/06/09 12:56:49;;;;;;;16.63;7.18;;;;;;;;;;5047123;28;20040;-74
2023/06/09 12:59:15;;;;;;;14.90;6.25;;;;;;;;;;5044579;28;20095;-74
2023/06/09 13:01:41;;;;;;;11.70;6.57;;;;;;;;;;5040488;28;20083;-73
2023/06/09 13:04:07;;;;;;;17.17;6.63;;;;;;;;;;5045167;28;20484;-73
2023/06/09 13:06:34;;;;;;;14.73;6.57;;;;;;;;;;5036853;28;20034;-73
2023/06/09 13:09:01;;;;;;;15.68;6.40;;;;;;;;;;5046377;28;20118;-73
2023/06/09 13:11:27;;;;;;;21.50;6.32;;;;;;;;;;5040253;28;20041;-73
2023/06/09 13:13:54;;;;;;;14.35;7.15;;;;;;;;;;5046721;28;20102;-73
2023/06/09 13:16:20;;;;;;;18.73;6.00;;;;;;;;;;5038276;28;20132;-74
2023/06/09 13:18:46;;;;;;;18.38;6.82;;;;;;;;;;5046448;28;20041;-73
2023/06/09 13:21:12;;;;;;;15.80;6.60;;;;;;;;;;5026011;28;20513;-78
2023/06/09 13:23:38;;;;;;;20.88;6.20;;;;;;;;;;5034244;28;20041;-73
2023/06/09 13:26:04;;;;;;;11.88;6.13;;;;;;;;;;5045042;28;20041;-73
2023/06/09 13:28:30;;;;;;;14.38;6.88;;;;;;;;;;5032374;28;20047;-73
2023/06/09 13:30:56;;;;;;;16.58;7.20;;;;;;;;;;5038743;28;20148;-73
2023/06/09 13:33:22;;;;;;;13.40;6.13;;;;;;;;;;5035907;28;20061;-71
2023/06/09 13:35:48;;;;;;;18.63;6.50;;;;;;;;;;5051411;28;20056;-70
2023/06/09 13:38:15;;;;;;;11.57;6.55;;;;;;;;;;5041670;28;20046;-71
2023/06/09 13:40:44;;;;;;;13.80;5.50;;;;;;;;;;5041335;28;20045;-73
2023/06/09 13:43:13;;;;;;;12.98;6.30;;;;;;;;;;5045987;28;20053;-74
2023/06/09 13:45:39;;;;;;;21.20;7.57;;;;;;;;;;5042769;28;20556;-73
2023/06/09 13:48:06;;;;;;;12.85;6.63;;;;;;;;;;5051273;28;20041;-70
2023/06/09 13:50:32;;;;;;;10.80;5.93;;;;;;;;;;5041304;28;20084;-69
2023/06/09 13:52:59;;;;;;;12.10;5.80;;;;;;;;;;5039475;28;20045;-72